sensor_id;sensor_type;location;lat;lon;timestamp;pressure;altitude;pressure_sealevel;temperature;humidity
70902;BME280;58548;47.210;8.618;2022-08-16T00:00:36;93662.47;;;23.18;43.29
70902;BME280;58548;47.210;8.618;2022-08-16T00:03:03;93712.41;;;23.42;43.30
70902;BME280;58548;47.210;8.618;2022-08-16T00:05:32;93654.63;;;23.02;43.29
70902;BME280;58548;47.210;8.618;2022-08-16T00:07:59;93643.00;;;22.88;42.99
70902;BME280;58548;47.210;8.618;2022-08-16T00:10:28;93714.06;;;23.32;43.50
70902;BME280;58548;47.210;8.618;2022-08-16T00:12:55;93704.84;;;23.19;43.40
70902;BME280;58548;47.210;8.618;2022-08-16T00:15:29;93720.00;;;23.24;43.02
70902;BME280;58548;47.210;8.618;2022-08-16T00:18:01;93705.69;;;23.10;43.48
70902;BME280;58548;47.210;8.618;2022-08-16T00:20:31;93716.28;;;23.20;43.66
70902;BME280;58548;47.210;8.618;2022-08-16T00:22:57;93713.38;;;23.16;43.47
70902;BME280;58548;47.210;8.618;2022-08-16T00:25:25;93720.59;;;23.11;43.59
70902;BME280;58548;47.210;8.618;2022-08-16T00:27:51;93662.03;;;22.71;43.16
70902;BME280;58548;47.210;8.618;2022-08-16T00:30:23;93665.22;;;22.73;43.98
70902;BME280;58548;47.210;8.618;2022-08-16T00:32:52;93702.09;;;22.90;43.59
70902;BME280;58548;47.210;8.618;2022-08-16T00:35:22;93723.34;;;23.00;43.28
70902;BME280;58548;47.210;8.618;2022-08-16T00:37:49;93723.09;;;22.97;43.37
70902;BME280;58548;47.210;8.618;2022-08-16T00:40:21;93721.25;;;22.92;43.40
70902;BME280;58548;47.210;8.618;2022-08-16T00:42:49;93652.81;;;22.48;43.87
70902;BME280;58548;47.210;8.618;2022-08-16T00:47:57;93724.75;;;22.87;43.89
70902;BME280;58548;47.210;8.618;2022-08-16T00:50:36;93694.78;;;22.66;43.74
70902;BME280;58548;47.210;8.618;2022-08-16T00:53:10;93661.91;;;22.36;43.53
70902;BME280;58548;47.210;8.618;2022-08-16T00:55:42;93698.78;;;22.64;43.82
70902;BME280;58548;47.210;8.618;2022-08-16T00:58:12;93699.59;;;22.64;43.70
70902;BME280;58548;47.210;8.618;2022-08-16T01:00:39;93697.19;;;22.63;44.07
70902;BME280;58548;47.210;8.618;2022-08-16T01:03:09;93728.81;;;22.69;43.98
70902;BME280;58548;47.210;8.618;2022-08-16T01:05:40;93650.81;;;22.19;44.18
70902;BME280;58548;47.210;8.618;2022-08-16T01:08:13;93668.63;;;22.23;44.16
70902;BME280;58548;47.210;8.618;2022-08-16T01:10:44;93732.06;;;22.61;44.07
70902;BME280;58548;47.210;8.618;2022-08-16T01:13:21;93729.94;;;22.58;43.82
70902;BME280;58548;47.210;8.618;2022-08-16T01:16:00;93666.50;;;22.20;43.66
70902;BME280;58548;47.210;8.618;2022-08-16T01:18:34;93655.13;;;22.04;43.82
70902;BME280;58548;47.210;8.618;2022-08-16T01:23:54;93732.66;;;22.48;44.01
70902;BME280;58548;47.210;8.618;2022-08-16T01:26:24;93725.72;;;22.47;44.04
70902;BME280;58548;47.210;8.618;2022-08-16T01:28:57;93731.06;;;22.47;44.02
70902;BME280;58548;47.210;8.618;2022-08-16T01:31:26;93666.56;;;22.05;43.70
70902;BME280;58548;47.210;8.618;2022-08-16T01:33:55;93733.22;;;22.44;43.86
70902;BME280;58548;47.210;8.618;2022-08-16T01:36:21;93728.41;;;22.41;44.02
70902;BME280;58548;47.210;8.618;2022-08-16T01:38:50;93724.16;;;22.35;44.17
70902;BME280;58548;47.210;8.618;2022-08-16T01:41:24;93726.31;;;22.43;44.12
70902;BME280;58548;47.210;8.618;2022-08-16T01:43:52;93652.50;;;21.94;44.10
70902;BME280;58548;47.210;8.618;2022-08-16T01:46:27;93723.09;;;22.41;44.20
70902;BME280;58548;47.210;8.618;2022-08-16T01:48:56;93694.38;;;22.33;44.15
70902;BME280;58548;47.210;8.618;2022-08-16T01:51:27;93704.72;;;22.40;44.12
70902;BME280;58548;47.210;8.618;2022-08-16T01:53:56;93687.00;;;22.14;44.16
70902;BME280;58548;47.210;8.618;2022-08-16T01:56:28;93647.22;;;21.83;44.33
70902;BME280;58548;47.210;8.618;2022-08-16T01:59:00;93710.09;;;22.24;44.41
70902;BME280;58548;47.210;8.618;2022-08-16T02:01:27;93711.47;;;22.22;44.77
70902;BME280;58548;47.210;8.618;2022-08-16T02:03:53;93644.06;;;21.76;44.65
70902;BME280;58548;47.210;8.618;2022-08-16T02:06:22;93702.41;;;22.18;44.55
70902;BME280;58548;47.210;8.618;2022-08-16T02:08:50;93702.97;;;22.14;44.62
70902;BME280;58548;47.210;8.618;2022-08-16T02:11:16;93630.78;;;21.71;44.61
70902;BME280;58548;47.210;8.618;2022-08-16T02:13:42;93687.28;;;22.13;44.29
70902;BME280;58548;47.210;8.618;2022-08-16T02:16:12;93632.38;;;21.77;44.58
70902;BME280;58548;47.210;8.618;2022-08-16T02:18:38;93608.22;;;21.63;44.37
70902;BME280;58548;47.210;8.618;2022-08-16T02:21:10;93688.59;;;22.16;44.64
70902;BME280;58548;47.210;8.618;2022-08-16T02:23:38;93622.00;;;21.76;44.40
70902;BME280;58548;47.210;8.618;2022-08-16T02:26:07;93685.13;;;22.20;44.40
70902;BME280;58548;47.210;8.618;2022-08-16T02:28:36;93627.84;;;21.83;44.19
70902;BME280;58548;47.210;8.618;2022-08-16T02:31:07;93627.59;;;21.69;44.58
70902;BME280;58548;47.210;8.618;2022-08-16T02:33:34;93657.03;;;21.93;44.43
70902;BME280;58548;47.210;8.618;2022-08-16T02:36:03;93619.34;;;21.76;44.33
70902;BME280;58548;47.210;8.618;2022-08-16T02:38:32;93688.59;;;22.16;44.47
70902;BME280;58548;47.210;8.618;2022-08-16T02:41:08;93613.53;;;21.63;44.04
70902;BME280;58548;47.210;8.618;2022-08-16T02:43:35;93612.19;;;21.61;44.05
70902;BME280;58548;47.210;8.618;2022-08-16T02:46:04;93609.56;;;21.56;44.07
70902;BME280;58548;47.210;8.618;2022-08-16T02:48:30;93628.66;;;21.68;44.37
70902;BME280;58548;47.210;8.618;2022-08-16T02:50:58;93654.16;;;21.79;43.92
70902;BME280;58548;47.210;8.618;2022-08-16T02:53:25;93594.97;;;21.37;44.03
70902;BME280;58548;47.210;8.618;2022-08-16T02:55:57;93667.94;;;21.92;44.15
70902;BME280;58548;47.210;8.618;2022-08-16T02:58:27;93581.16;;;21.30;44.20
70902;BME280;58548;47.210;8.618;2022-08-16T03:01:01;93632.66;;;21.60;44.28
70902;BME280;58548;47.210;8.618;2022-08-16T03:03:27;93664.78;;;21.79;44.49
70902;BME280;58548;47.210;8.618;2022-08-16T03:05:55;93658.44;;;21.70;44.13
70902;BME280;58548;47.210;8.618;2022-08-16T03:08:22;93659.47;;;21.74;44.04
70902;BME280;58548;47.210;8.618;2022-08-16T03:10:54;93662.13;;;21.74;44.38
70902;BME280;58548;47.210;8.618;2022-08-16T03:13:20;93650.44;;;21.70;44.25
70902;BME280;58548;47.210;8.618;2022-08-16T03:15:46;93572.19;;;21.21;44.15
70902;BME280;58548;47.210;8.618;2022-08-16T03:18:17;93577.72;;;21.30;44.09
70902;BME280;58548;47.210;8.618;2022-08-16T03:20:43;93641.13;;;21.73;44.14
70902;BME280;58548;47.210;8.618;2022-08-16T03:23:10;93581.44;;;21.29;43.97
70902;BME280;58548;47.210;8.618;2022-08-16T03:25:38;93586.75;;;21.29;43.86
70902;BME280;58548;47.210;8.618;2022-08-16T03:28:06;93646.75;;;21.66;44.08
70902;BME280;58548;47.210;8.618;2022-08-16T03:30:36;93649.94;;;21.63;43.93
70902;BME280;58548;47.210;8.618;2022-08-16T03:33:03;93646.75;;;21.56;43.54
70902;BME280;58548;47.210;8.618;2022-08-16T03:35:36;93620.75;;;21.37;44.03
70902;BME280;58548;47.210;8.618;2022-08-16T03:38:08;93578.28;;;21.11;43.93
70902;BME280;58548;47.210;8.618;2022-08-16T03:40:38;93576.19;;;21.13;44.10
70902;BME280;58548;47.210;8.618;2022-08-16T03:43:10;93629.47;;;21.68;44.16
70902;BME280;58548;47.210;8.618;2022-08-16T03:45:38;93651.53;;;21.64;44.10
70902;BME280;58548;47.210;8.618;2022-08-16T03:48:08;93653.91;;;21.55;44.13
70902;BME280;58548;47.210;8.618;2022-08-16T03:50:35;93647.81;;;21.54;44.16
70902;BME280;58548;47.210;8.618;2022-08-16T03:53:05;93584.66;;;21.10;44.07
70902;BME280;58548;47.210;8.618;2022-08-16T03:55:31;93650.72;;;21.53;44.06
70902;BME280;58548;47.210;8.618;2022-08-16T03:58:02;93616.25;;;21.22;43.93
70902;BME280;58548;47.210;8.618;2022-08-16T04:00:31;93585.72;;;20.99;44.23
70902;BME280;58548;47.210;8.618;2022-08-16T04:03:01;93649.94;;;21.42;43.79
70902;BME280;58548;47.210;8.618;2022-08-16T04:05:46;93653.69;;;21.36;43.69
70902;BME280;58548;47.210;8.618;2022-08-16T04:08:13;93587.88;;;20.91;44.09
70902;BME280;58548;47.210;8.618;2022-08-16T04:10:42;93652.88;;;21.30;44.18
70902;BME280;58548;47.210;8.618;2022-08-16T04:13:12;93636.16;;;21.19;43.94
70902;BME280;58548;47.210;8.618;2022-08-16T04:15:41;93640.94;;;21.28;43.67
70902;BME280;58548;47.210;8.618;2022-08-16T04:18:07;93577.78;;;20.83;43.78
70902;BME280;58548;47.210;8.618;2022-08-16T04:20:34;93615.22;;;21.02;44.13
70902;BME280;58548;47.210;8.618;2022-08-16T04:23:03;93643.34;;;21.19;44.15
70902;BME280;58548;47.210;8.618;2022-08-16T04:25:33;93620.25;;;21.09;44.82
70902;BME280;58548;47.210;8.618;2022-08-16T04:27:59;93639.34;;;21.21;44.85
70902;BME280;58548;47.210;8.618;2022-08-16T04:30:28;93643.59;;;21.28;44.58
70902;BME280;58548;47.210;8.618;2022-08-16T04:32:54;93637.75;;;21.26;44.42
70902;BME280;58548;47.210;8.618;2022-08-16T04:35:26;93591.84;;;20.94;44.45
70902;BME280;58548;47.210;8.618;2022-08-16T04:37:52;93640.66;;;21.29;44.31
70902;BME280;58548;47.210;8.618;2022-08-16T04:40:20;93575.66;;;20.85;44.39
70902;BME280;58548;47.210;8.618;2022-08-16T04:42:49;93647.31;;;21.37;44.35
70902;BME280;58548;47.210;8.618;2022-08-16T04:45:18;93631.91;;;21.23;44.00
70902;BME280;58548;47.210;8.618;2022-08-16T04:47:44;93639.88;;;21.34;43.99
70902;BME280;58548;47.210;8.618;2022-08-16T04:50:19;93651.03;;;21.36;44.63
70902;BME280;58548;47.210;8.618;2022-08-16T04:52:47;93635.09;;;21.31;44.37
70902;BME280;58548;47.210;8.618;2022-08-16T04:55:21;93638.28;;;21.33;43.93
70902;BME280;58548;47.210;8.618;2022-08-16T04:57:50;93621.28;;;21.34;44.18
70902;BME280;58548;47.210;8.618;2022-08-16T05:00:23;93643.03;;;21.41;44.37
70902;BME280;58548;47.210;8.618;2022-08-16T05:02:52;93611.19;;;21.20;44.82
70902;BME280;58548;47.210;8.618;2022-08-16T05:05:19;93627.91;;;21.31;44.46
70902;BME280;58548;47.210;8.618;2022-08-16T05:07:49;93630.81;;;21.40;44.48
70902;BME280;58548;47.210;8.618;2022-08-16T05:10:17;93573.00;;;20.96;44.64
70902;BME280;58548;47.210;8.618;2022-08-16T05:12:43;93606.69;;;21.21;44.56
70902;BME280;58548;47.210;8.618;2022-08-16T05:15:10;93640.66;;;21.50;44.49
70902;BME280;58548;47.210;8.618;2022-08-16T05:17:36;93658.97;;;21.62;44.62
70902;BME280;58548;47.210;8.618;2022-08-16T05:22:31;93651.25;;;21.71;44.71
70902;BME280;58548;47.210;8.618;2022-08-16T05:24:57;93603.72;;;21.43;44.75
70902;BME280;58548;47.210;8.618;2022-08-16T05:27:25;93645.13;;;21.75;45.14
70902;BME280;58548;47.210;8.618;2022-08-16T05:29:51;93598.94;;;21.50;44.99
70902;BME280;58548;47.210;8.618;2022-08-16T05:32:21;93651.97;;;21.92;44.88
70902;BME280;58548;47.210;8.618;2022-08-16T05:34:50;93634.22;;;21.77;44.98
70902;BME280;58548;47.210;8.618;2022-08-16T05:37:19;93663.13;;;21.99;44.67
70902;BME280;58548;47.210;8.618;2022-08-16T05:39:51;93663.63;;;22.11;44.88
70902;BME280;58548;47.210;8.618;2022-08-16T05:42:17;93674.25;;;22.17;44.86
70902;BME280;58548;47.210;8.618;2022-08-16T05:44:45;93672.59;;;22.26;44.91
70902;BME280;58548;47.210;8.618;2022-08-16T05:47:16;93578.16;;;21.78;45.24
70902;BME280;58548;47.210;8.618;2022-08-16T05:49:45;93659.25;;;22.36;45.37
70902;BME280;58548;47.210;8.618;2022-08-16T05:52:13;93662.94;;;22.51;45.09
70902;BME280;58548;47.210;8.618;2022-08-16T05:54:42;93601.09;;;22.19;45.27
70902;BME280;58548;47.210;8.618;2022-08-16T05:57:11;93595.97;;;22.28;45.45
70902;BME280;58548;47.210;8.618;2022-08-16T05:59:37;93661.41;;;22.84;45.27
70902;BME280;58548;47.210;8.618;2022-08-16T06:02:05;93666.91;;;22.93;45.14
70902;BME280;58548;47.210;8.618;2022-08-16T06:04:34;93595.84;;;22.59;45.29
70902;BME280;58548;47.210;8.618;2022-08-16T06:07:00;93602.09;;;22.73;45.23
70902;BME280;58548;47.210;8.618;2022-08-16T06:09:31;93606.25;;;22.90;46.04
70902;BME280;58548;47.210;8.618;2022-08-16T06:11:58;93609.19;;;23.23;47.03
70902;BME280;58548;47.210;8.618;2022-08-16T06:14:30;93650.66;;;23.88;47.13
70902;BME280;58548;47.210;8.618;2022-08-16T06:16:56;93658.00;;;24.45;47.76
70902;BME280;58548;47.210;8.618;2022-08-16T06:19:22;93659.31;;;25.05;47.32
70902;BME280;58548;47.210;8.618;2022-08-16T06:21:48;93654.19;;;25.61;45.96
70902;BME280;58548;47.210;8.618;2022-08-16T06:24:16;93637.59;;;26.20;43.84
70902;BME280;58548;47.210;8.618;2022-08-16T06:26:42;93640.22;;;26.85;44.73
70902;BME280;58548;47.210;8.618;2022-08-16T06:29:08;93657.00;;;27.59;42.29
70902;BME280;58548;47.210;8.618;2022-08-16T06:31:34;93649.38;;;28.15;40.73
70902;BME280;58548;47.210;8.618;2022-08-16T06:34:00;93600.63;;;28.39;39.95
70902;BME280;58548;47.210;8.618;2022-08-16T06:36:26;93610.31;;;28.93;38.30
70902;BME280;58548;47.210;8.618;2022-08-16T06:38:52;93665.25;;;29.75;37.92
70902;BME280;58548;47.210;8.618;2022-08-16T06:41:19;93585.97;;;29.72;35.71
70902;BME280;58548;47.210;8.618;2022-08-16T06:43:45;93663.25;;;30.71;35.59
70902;BME280;58548;47.210;8.618;2022-08-16T06:46:41;93670.19;;;31.23;35.20
70902;BME280;58548;47.210;8.618;2022-08-16T06:49:15;93622.63;;;31.52;34.85
70902;BME280;58548;47.210;8.618;2022-08-16T06:51:42;93658.31;;;32.28;31.55
70902;BME280;58548;47.210;8.618;2022-08-16T06:54:09;93612.69;;;32.14;31.34
70902;BME280;58548;47.210;8.618;2022-08-16T06:56:38;93618.13;;;32.39;31.99
70902;BME280;58548;47.210;8.618;2022-08-16T06:59:08;93617.84;;;32.69;30.62
70902;BME280;58548;47.210;8.618;2022-08-16T07:01:38;93653.59;;;33.32;29.04
70902;BME280;58548;47.210;8.618;2022-08-16T07:04:07;93672.19;;;33.90;28.19
70902;BME280;58548;47.210;8.618;2022-08-16T07:06:33;93677.63;;;34.22;27.64
70902;BME280;58548;47.210;8.618;2022-08-16T07:08:59;93678.41;;;34.55;26.69
70902;BME280;58548;47.210;8.618;2022-08-16T07:11:27;93679.75;;;34.81;25.75
70902;BME280;58548;47.210;8.618;2022-08-16T07:13:53;93659.53;;;34.94;26.06
70902;BME280;58548;47.210;8.618;2022-08-16T07:16:19;93635.41;;;35.09;25.01
70902;BME280;58548;47.210;8.618;2022-08-16T07:18:49;93658.69;;;35.49;26.08
70902;BME280;58548;47.210;8.618;2022-08-16T07:21:15;93665.31;;;35.95;25.37
70902;BME280;58548;47.210;8.618;2022-08-16T07:23:41;93672.16;;;36.31;24.16
70902;BME280;58548;47.210;8.618;2022-08-16T07:26:18;93619.72;;;36.31;24.93
70902;BME280;58548;47.210;8.618;2022-08-16T07:28:49;93679.41;;;37.01;23.72
70902;BME280;58548;47.210;8.618;2022-08-16T07:31:17;93645.31;;;37.10;22.75
70902;BME280;58548;47.210;8.618;2022-08-16T07:33:46;93673.88;;;37.54;21.99
70902;BME280;58548;47.210;8.618;2022-08-16T07:36:16;93629.53;;;37.23;22.43
70902;BME280;58548;47.210;8.618;2022-08-16T07:38:45;93629.84;;;37.49;21.87
70902;BME280;58548;47.210;8.618;2022-08-16T07:41:11;93695.13;;;38.17;22.01
70902;BME280;58548;47.210;8.618;2022-08-16T07:43:37;93644.72;;;38.41;21.74
70902;BME280;58548;47.210;8.618;2022-08-16T07:46:06;93696.38;;;38.79;21.64
70902;BME280;58548;47.210;8.618;2022-08-16T07:48:32;93703.56;;;38.95;20.96
70902;BME280;58548;47.210;8.618;2022-08-16T07:51:01;93699.72;;;39.14;20.67
70902;BME280;58548;47.210;8.618;2022-08-16T07:53:34;93661.53;;;39.17;19.88
70902;BME280;58548;47.210;8.618;2022-08-16T07:56:04;93701.50;;;39.62;20.93
70902;BME280;58548;47.210;8.618;2022-08-16T07:58:31;93660.13;;;39.53;19.93
70902;BME280;58548;47.210;8.618;2022-08-16T08:00:57;93678.97;;;39.87;19.61
70902;BME280;58548;47.210;8.618;2022-08-16T08:03:26;93711.88;;;40.37;19.04
70902;BME280;58548;47.210;8.618;2022-08-16T08:05:52;93689.94;;;40.08;19.61
70902;BME280;58548;47.210;8.618;2022-08-16T08:08:18;93708.72;;;40.21;19.80
70902;BME280;58548;47.210;8.618;2022-08-16T08:10:46;93683.34;;;40.28;20.29
70902;BME280;58548;47.210;8.618;2022-08-16T08:13:12;93714.97;;;40.87;18.95
70902;BME280;58548;47.210;8.618;2022-08-16T08:15:40;93717.69;;;40.97;19.20
70902;BME280;58548;47.210;8.618;2022-08-16T08:18:08;93720.81;;;41.07;19.14
70902;BME280;58548;47.210;8.618;2022-08-16T08:20:37;93714.88;;;41.37;19.10
70902;BME280;58548;47.210;8.618;2022-08-16T08:23:11;93712.56;;;41.28;17.92
70902;BME280;58548;47.210;8.618;2022-08-16T08:25:43;93703.47;;;41.57;17.87
70902;BME280;58548;47.210;8.618;2022-08-16T08:28:14;93718.97;;;41.89;18.25
70902;BME280;58548;47.210;8.618;2022-08-16T08:30:41;93670.44;;;41.82;17.21
70902;BME280;58548;47.210;8.618;2022-08-16T08:33:07;93728.47;;;42.41;17.53
70902;BME280;58548;47.210;8.618;2022-08-16T08:35:41;93725.31;;;42.42;17.74
70902;BME280;58548;47.210;8.618;2022-08-16T08:38:09;93726.13;;;42.43;16.04
70902;BME280;58548;47.210;8.618;2022-08-16T08:40:40;93723.75;;;42.41;16.83
70902;BME280;58548;47.210;8.618;2022-08-16T08:43:06;93727.13;;;42.63;16.48
70902;BME280;58548;47.210;8.618;2022-08-16T08:45:34;93721.53;;;42.74;15.90
70902;BME280;58548;47.210;8.618;2022-08-16T08:48:03;93735.78;;;43.04;16.47
70902;BME280;58548;47.210;8.618;2022-08-16T08:50:33;93746.38;;;43.44;16.32
70902;BME280;58548;47.210;8.618;2022-08-16T08:53:02;93733.94;;;43.70;14.75
70902;BME280;58548;47.210;8.618;2022-08-16T08:55:28;93726.97;;;43.93;15.29
70902;BME280;58548;47.210;8.618;2022-08-16T08:57:59;93736.66;;;44.28;13.98
70902;BME280;58548;47.210;8.618;2022-08-16T09:00:30;93738.72;;;44.24;13.67
70902;BME280;58548;47.210;8.618;2022-08-16T09:02:56;93740.41;;;44.42;12.91
70902;BME280;58548;47.210;8.618;2022-08-16T09:05:25;93733.69;;;44.47;13.27
70902;BME280;58548;47.210;8.618;2022-08-16T09:07:53;93731.88;;;44.87;13.28
70902;BME280;58548;47.210;8.618;2022-08-16T09:10:24;93697.41;;;44.76;13.75
70902;BME280;58548;47.210;8.618;2022-08-16T09:12:52;93726.53;;;45.21;12.79
70902;BME280;58548;47.210;8.618;2022-08-16T09:15:20;93731.50;;;45.29;12.07
70902;BME280;58548;47.210;8.618;2022-08-16T09:17:49;93736.28;;;45.05;12.45
70902;BME280;58548;47.210;8.618;2022-08-16T09:20:17;93734.28;;;44.82;12.37
70902;BME280;58548;47.210;8.618;2022-08-16T09:22:46;93738.50;;;44.90;13.21
70902;BME280;58548;47.210;8.618;2022-08-16T09:25:14;93703.53;;;44.87;12.36
70902;BME280;58548;47.210;8.618;2022-08-16T09:27:42;93724.50;;;45.25;13.27
70902;BME280;58548;47.210;8.618;2022-08-16T09:30:13;93679.69;;;45.00;13.16
70902;BME280;58548;47.210;8.618;2022-08-16T09:32:39;93683.28;;;45.17;13.57
70902;BME280;58548;47.210;8.618;2022-08-16T09:35:10;93735.09;;;45.87;12.40
70902;BME280;58548;47.210;8.618;2022-08-16T09:37:43;93731.59;;;45.66;12.68
70902;BME280;58548;47.210;8.618;2022-08-16T09:40:11;93679.16;;;45.29;12.58
70902;BME280;58548;47.210;8.618;2022-08-16T09:42:37;93674.22;;;45.41;12.57
70902;BME280;58548;47.210;8.618;2022-08-16T09:45:05;93631.38;;;45.16;12.40
70902;BME280;58548;47.210;8.618;2022-08-16T09:47:34;93715.53;;;45.61;12.93
70902;BME280;58548;47.210;8.618;2022-08-16T09:50:08;93692.13;;;45.49;12.87
70902;BME280;58548;47.210;8.618;2022-08-16T09:52:37;93677.53;;;45.32;11.71
70902;BME280;58548;47.210;8.618;2022-08-16T09:55:08;93690.09;;;45.53;12.46
70902;BME280;58548;47.210;8.618;2022-08-16T09:57:38;93726.97;;;45.80;12.35
70902;BME280;58548;47.210;8.618;2022-08-16T10:00:09;93730.09;;;45.82;12.05
70902;BME280;58548;47.210;8.618;2022-08-16T10:02:38;93612.44;;;45.18;10.89
70902;BME280;58548;47.210;8.618;2022-08-16T10:05:07;93710.38;;;45.83;11.41
70902;BME280;58548;47.210;8.618;2022-08-16T10:07:34;93676.38;;;45.50;12.18
70902;BME280;58548;47.210;8.618;2022-08-16T10:10:02;93666.69;;;45.41;12.24
70902;BME280;58548;47.210;8.618;2022-08-16T10:12:28;93733.59;;;46.02;11.69
70902;BME280;58548;47.210;8.618;2022-08-16T10:15:18;93696.69;;;45.96;12.07
70902;BME280;58548;47.210;8.618;2022-08-16T10:17:50;93735.81;;;46.28;10.41
70902;BME280;58548;47.210;8.618;2022-08-16T10:20:16;93732.16;;;46.14;10.60
70902;BME280;58548;47.210;8.618;2022-08-16T10:22:42;93733.47;;;46.10;11.21
70902;BME280;58548;47.210;8.618;2022-08-16T10:25:08;93740.59;;;46.44;11.84
70902;BME280;58548;47.210;8.618;2022-08-16T10:27:38;93746.28;;;46.70;11.53
70902;BME280;58548;47.210;8.618;2022-08-16T10:30:06;93745.16;;;47.00;10.79
70902;BME280;58548;47.210;8.618;2022-08-16T10:32:33;93669.63;;;46.74;10.54
70902;BME280;58548;47.210;8.618;2022-08-16T10:35:04;93689.59;;;47.11;10.44
70902;BME280;58548;47.210;8.618;2022-08-16T10:37:31;93707.38;;;47.10;9.63
70902;BME280;58548;47.210;8.618;2022-08-16T10:39:59;93740.31;;;47.04;9.87
70902;BME280;58548;47.210;8.618;2022-08-16T10:42:27;93736.97;;;46.96;9.77
70902;BME280;58548;47.210;8.618;2022-08-16T10:44:55;93734.19;;;46.30;10.70
70902;BME280;58548;47.210;8.618;2022-08-16T10:47:21;93693.44;;;45.65;10.68
70902;BME280;58548;47.210;8.618;2022-08-16T10:49:55;93724.69;;;45.95;10.50
70902;BME280;58548;47.210;8.618;2022-08-16T10:52:24;93685.03;;;45.88;10.65
70902;BME280;58548;47.210;8.618;2022-08-16T10:54:50;93683.09;;;46.05;10.74
70902;BME280;58548;47.210;8.618;2022-08-16T10:57:16;93737.09;;;46.23;10.27
70902;BME280;58548;47.210;8.618;2022-08-16T10:59:44;93734.97;;;45.74;10.37
70902;BME280;58548;47.210;8.618;2022-08-16T11:02:10;93678.53;;;45.42;10.77
70902;BME280;58548;47.210;8.618;2022-08-16T11:04:39;93733.47;;;46.10;10.65
70902;BME280;58548;47.210;8.618;2022-08-16T11:07:05;93738.66;;;46.41;10.36
70902;BME280;58548;47.210;8.618;2022-08-16T11:09:36;93736.72;;;46.04;10.54
70902;BME280;58548;47.210;8.618;2022-08-16T11:12:05;93686.28;;;45.67;10.64
70902;BME280;58548;47.210;8.618;2022-08-16T11:14:32;93713.41;;;45.89;10.89
70902;BME280;58548;47.210;8.618;2022-08-16T11:17:02;93721.59;;;46.29;10.82
70902;BME280;58548;47.210;8.618;2022-08-16T11:19:28;93677.41;;;46.13;11.52
70902;BME280;58548;47.210;8.618;2022-08-16T11:21:55;93735.19;;;46.20;10.84
70902;BME280;58548;47.210;8.618;2022-08-16T11:24:23;93718.47;;;46.11;11.71
70902;BME280;58548;47.210;8.618;2022-08-16T11:26:54;93661.16;;;45.98;11.83
70902;BME280;58548;47.210;8.618;2022-08-16T11:29:19;93721.78;;;46.39;11.23
70902;BME280;58548;47.210;8.618;2022-08-16T11:31:48;93724.84;;;46.41;11.02
70902;BME280;58548;47.210;8.618;2022-08-16T11:34:19;93726.69;;;46.64;11.02
70902;BME280;58548;47.210;8.618;2022-08-16T11:36:50;93716.34;;;46.68;10.44
70902;BME280;58548;47.210;8.618;2022-08-16T11:39:18;93726.59;;;47.01;9.74
70902;BME280;58548;47.210;8.618;2022-08-16T11:41:44;93734.75;;;47.21;10.04
70902;BME280;58548;47.210;8.618;2022-08-16T11:44:10;93696.00;;;47.24;9.40
70902;BME280;58548;47.210;8.618;2022-08-16T11:46:39;93726.09;;;47.48;9.63
70902;BME280;58548;47.210;8.618;2022-08-16T11:49:10;93731.72;;;47.32;8.68
70902;BME280;58548;47.210;8.618;2022-08-16T11:51:35;93723.00;;;47.46;9.08
70902;BME280;58548;47.210;8.618;2022-08-16T11:54:04;93678.59;;;46.94;9.18
70902;BME280;58548;47.210;8.618;2022-08-16T11:56:30;93711.19;;;47.16;9.91
70902;BME280;58548;47.210;8.618;2022-08-16T11:58:56;93715.53;;;47.01;9.64
70902;BME280;58548;47.210;8.618;2022-08-16T12:01:22;93690.78;;;46.80;9.70
70902;BME280;58548;47.210;8.618;2022-08-16T12:03:52;93720.97;;;47.04;9.61
70902;BME280;58548;47.210;8.618;2022-08-16T12:06:18;93725.75;;;46.71;9.90
70902;BME280;58548;47.210;8.618;2022-08-16T12:08:48;93697.34;;;46.04;10.13
70902;BME280;58548;47.210;8.618;2022-08-16T12:11:17;93686.75;;;46.35;10.27
70902;BME280;58548;47.210;8.618;2022-08-16T12:13:45;93707.41;;;46.11;10.02
70902;BME280;58548;47.210;8.618;2022-08-16T12:16:14;93675.78;;;45.78;10.10
70902;BME280;58548;47.210;8.618;2022-08-16T12:18:40;93701.66;;;45.85;10.27
70902;BME280;58548;47.210;8.618;2022-08-16T12:21:08;93715.41;;;45.68;10.88
70902;BME280;58548;47.210;8.618;2022-08-16T12:23:34;93699.22;;;45.70;10.43
70902;BME280;58548;47.210;8.618;2022-08-16T12:26:00;93714.75;;;46.17;10.21
70902;BME280;58548;47.210;8.618;2022-08-16T12:28:29;93701.38;;;45.59;9.91
70902;BME280;58548;47.210;8.618;2022-08-16T12:30:56;93661.41;;;45.30;10.18
70902;BME280;58548;47.210;8.618;2022-08-16T12:33:25;93666.25;;;45.02;9.86
70902;BME280;58548;47.210;8.618;2022-08-16T12:35:53;93715.34;;;45.08;10.11
70902;BME280;58548;47.210;8.618;2022-08-16T12:38:24;93656.16;;;44.96;10.61
70902;BME280;58548;47.210;8.618;2022-08-16T12:40:54;93650.16;;;44.77;10.32
70902;BME280;58548;47.210;8.618;2022-08-16T12:43:24;93705.59;;;44.79;10.29
70902;BME280;58548;47.210;8.618;2022-08-16T12:45:52;93658.78;;;44.32;10.57
70902;BME280;58548;47.210;8.618;2022-08-16T12:48:27;93691.25;;;44.44;11.04
70902;BME280;58548;47.210;8.618;2022-08-16T12:51:15;93646.44;;;43.61;10.89
70902;BME280;58548;47.210;8.618;2022-08-16T12:53:43;93697.53;;;44.17;10.91
70902;BME280;58548;47.210;8.618;2022-08-16T12:56:11;93690.88;;;43.87;10.86
70902;BME280;58548;47.210;8.618;2022-08-16T12:58:38;93685.75;;;43.58;11.23
70902;BME280;58548;47.210;8.618;2022-08-16T13:01:06;93676.38;;;42.83;11.09
70902;BME280;58548;47.210;8.618;2022-08-16T13:03:38;93640.88;;;42.61;11.83
70902;BME280;58548;47.210;8.618;2022-08-16T13:06:08;93638.13;;;42.15;11.27
70902;BME280;58548;47.210;8.618;2022-08-16T13:08:37;93687.75;;;42.32;11.59
70902;BME280;58548;47.210;8.618;2022-08-16T13:11:06;93677.72;;;42.11;12.08
70902;BME280;58548;47.210;8.618;2022-08-16T13:13:35;93640.56;;;41.24;11.84
70902;BME280;58548;47.210;8.618;2022-08-16T13:16:04;93683.09;;;41.62;12.79